Airfield :
LOGIN :

Register | Disclaimer

   EN    FR    IT 

 










Legend :    VFR   Marginal VFR   IFR   Intensive IFR   Very Intensive IFR
Visi :
Ceiling :
>= 8 km
>= 3000ft
5 to 8 km
1000 to 3000 ft
1500m to 5 km
500 to 1000 ft
800 to 1500m
200 to 500 ft
< 800m
< 200 ft
Symbols :   Thunderstorms  Fog  Heavy snow  Heavy precipitations  Wind > 20 kt
SIGMETs :     Misc.  Thunderstorms  Icing  Turbulence  Mountain Waves  Volcanic Ashes






- Airport Elevation : 52 ft
- IATA code : RNN


EKRN - Bornholm Ronne

CURRENT METAR :
  • 220750Z AUTO 28006KT 0750 R11/1400D R29/P1500D FG VV002 17/16 Q1005

EXPIRED METARs :
  • 220720Z AUTO 27004KT 1700 BR OVC002/// 17/16 Q1005
  • 220650Z AUTO 25005KT 220V290 2700 BR OVC002/// 17/17 Q1005
  • 220620Z AUTO 19001KT 2600 BR OVC002/// 17/17 Q1005
  • 220550Z AUTO 11001KT 2700 OVC003/// 17/17 Q1005
  • 220520Z AUTO 15001KT 3400 SCT003/// OVC019/// 17/17 Q1004
  • 220450Z AUTO 18005KT 9000 OVC022/// 17/16 Q1004
  • 220420Z AUTO 12003KT 9999 OVC022/// 17/16 Q1004
  • 220350Z AUTO 13004KT 100V160 9999 OVC020/// 17/16 Q1005
  • 220320Z AUTO 12006KT 9999 OVC019/// 17/16 Q1005

TAF AMD TAF EKRN
Valid from the 22 at 06:00 until the 22 at 15:00 UTC


220640Z 2206/2215 18005KT 9999 SCT006 BKN020
BECMG 2206/2209 26015G25KT
TEMPO 2206/2210 2500 BR SHRA BKN002 SCT040CB
TEMPO 2210/2213 4000 SHRA BKN006 SCT040CB
TEMPO 2213/2215 6000 -RA BKN008



MET'MAP, your aeronautical weather chart ! - Copyright ORBIFLY December 2007 - Disclaimer

ORBIFLY MET'MAP TEAM :

Programming & Development : Alexandra Zaïnal
Original concept : Baudouin d'Aumeries
Technical & hardware support : Manuel Goepfert
Assistance : Marc-Olivier Méhu




SOURCES & CREDITS :

   NOAA